sensor_id;sensor_type;location;lat;lon;timestamp;P1;durP1;ratioP1;P2;durP2;ratioP2
71080;SDS011;58740;50.672;18.690;2023-04-24T00:00:05;18.90;;;10.30;;
71080;SDS011;58740;50.672;18.690;2023-04-24T00:02:53;18.70;;;10.20;;
71080;SDS011;58740;50.672;18.690;2023-04-24T00:05:25;17.80;;;10.20;;
71080;SDS011;58740;50.672;18.690;2023-04-24T00:07:53;17.70;;;10.30;;
71080;SDS011;58740;50.672;18.690;2023-04-24T00:10:21;17.30;;;10.40;;
71080;SDS011;58740;50.672;18.690;2023-04-24T00:12:49;18.80;;;9.70;;
71080;SDS011;58740;50.672;18.690;2023-04-24T00:15:16;18.80;;;10.80;;
71080;SDS011;58740;50.672;18.690;2023-04-24T00:17:44;16.00;;;10.50;;
71080;SDS011;58740;50.672;18.690;2023-04-24T00:20:12;17.40;;;8.70;;
71080;SDS011;58740;50.672;18.690;2023-04-24T00:22:41;18.90;;;9.80;;
71080;SDS011;58740;50.672;18.690;2023-04-24T00:25:09;17.40;;;8.80;;
71080;SDS011;58740;50.672;18.690;2023-04-24T00:27:37;14.60;;;8.30;;
71080;SDS011;58740;50.672;18.690;2023-04-24T00:30:06;19.30;;;8.90;;
71080;SDS011;58740;50.672;18.690;2023-04-24T00:32:34;17.50;;;9.40;;
71080;SDS011;58740;50.672;18.690;2023-04-24T00:35:02;15.20;;;9.00;;
71080;SDS011;58740;50.672;18.690;2023-04-24T00:37:31;16.20;;;9.40;;
71080;SDS011;58740;50.672;18.690;2023-04-24T00:39:59;15.90;;;8.90;;
71080;SDS011;58740;50.672;18.690;2023-04-24T00:42:27;15.40;;;8.90;;
71080;SDS011;58740;50.672;18.690;2023-04-24T00:44:56;15.90;;;9.00;;
71080;SDS011;58740;50.672;18.690;2023-04-24T00:47:25;17.50;;;8.80;;
71080;SDS011;58740;50.672;18.690;2023-04-24T00:49:52;13.90;;;8.20;;
71080;SDS011;58740;50.672;18.690;2023-04-24T00:52:20;16.20;;;9.00;;
71080;SDS011;58740;50.672;18.690;2023-04-24T00:54:51;17.20;;;8.70;;
71080;SDS011;58740;50.672;18.690;2023-04-24T00:57:19;16.10;;;8.50;;
71080;SDS011;58740;50.672;18.690;2023-04-24T00:59:47;16.50;;;8.70;;
71080;SDS011;58740;50.672;18.690;2023-04-24T01:02:15;16.60;;;8.40;;
71080;SDS011;58740;50.672;18.690;2023-04-24T01:04:43;14.90;;;8.80;;
71080;SDS011;58740;50.672;18.690;2023-04-24T01:07:11;19.20;;;9.00;;
71080;SDS011;58740;50.672;18.690;2023-04-24T01:09:40;18.90;;;9.50;;
71080;SDS011;58740;50.672;18.690;2023-04-24T01:12:12;17.60;;;9.60;;
71080;SDS011;58740;50.672;18.690;2023-04-24T01:14:39;20.20;;;10.00;;
71080;SDS011;58740;50.672;18.690;2023-04-24T01:17:07;19.40;;;11.10;;
71080;SDS011;58740;50.672;18.690;2023-04-24T01:19:37;16.90;;;9.10;;
71080;SDS011;58740;50.672;18.690;2023-04-24T01:22:11;18.60;;;9.90;;
71080;SDS011;58740;50.672;18.690;2023-04-24T01:24:41;23.60;;;9.30;;
71080;SDS011;58740;50.672;18.690;2023-04-24T01:27:10;16.40;;;9.40;;
71080;SDS011;58740;50.672;18.690;2023-04-24T01:29:38;17.10;;;9.50;;
71080;SDS011;58740;50.672;18.690;2023-04-24T01:32:06;17.30;;;9.40;;
71080;SDS011;58740;50.672;18.690;2023-04-24T01:34:34;16.60;;;9.60;;
71080;SDS011;58740;50.672;18.690;2023-04-24T01:37:02;15.80;;;9.10;;
71080;SDS011;58740;50.672;18.690;2023-04-24T01:39:30;13.50;;;8.40;;
71080;SDS011;58740;50.672;18.690;2023-04-24T01:41:57;19.20;;;9.40;;
71080;SDS011;58740;50.672;18.690;2023-04-24T01:44:26;14.80;;;9.20;;
71080;SDS011;58740;50.672;18.690;2023-04-24T01:46:55;17.60;;;10.20;;
71080;SDS011;58740;50.672;18.690;2023-04-24T01:49:23;16.50;;;8.80;;
71080;SDS011;58740;50.672;18.690;2023-04-24T01:51:50;16.20;;;9.10;;
71080;SDS011;58740;50.672;18.690;2023-04-24T01:54:18;18.20;;;10.50;;
71080;SDS011;58740;50.672;18.690;2023-04-24T01:56:47;17.00;;;9.70;;
71080;SDS011;58740;50.672;18.690;2023-04-24T01:59:15;14.40;;;8.30;;
71080;SDS011;58740;50.672;18.690;2023-04-24T02:01:45;18.70;;;9.80;;
71080;SDS011;58740;50.672;18.690;2023-04-24T02:04:12;15.50;;;9.80;;
71080;SDS011;58740;50.672;18.690;2023-04-24T02:06:42;16.30;;;9.60;;
71080;SDS011;58740;50.672;18.690;2023-04-24T02:09:10;15.40;;;9.20;;
71080;SDS011;58740;50.672;18.690;2023-04-24T02:11:38;16.80;;;9.80;;
71080;SDS011;58740;50.672;18.690;2023-04-24T02:14:05;15.70;;;9.80;;
71080;SDS011;58740;50.672;18.690;2023-04-24T02:16:33;20.50;;;9.80;;
71080;SDS011;58740;50.672;18.690;2023-04-24T02:19:03;17.60;;;9.60;;
71080;SDS011;58740;50.672;18.690;2023-04-24T02:21:31;18.30;;;10.00;;
71080;SDS011;58740;50.672;18.690;2023-04-24T02:24:00;14.70;;;8.90;;
71080;SDS011;58740;50.672;18.690;2023-04-24T02:26:28;15.90;;;9.40;;
71080;SDS011;58740;50.672;18.690;2023-04-24T02:28:56;15.60;;;9.40;;
71080;SDS011;58740;50.672;18.690;2023-04-24T02:31:24;16.30;;;10.50;;
71080;SDS011;58740;50.672;18.690;2023-04-24T02:33:52;14.40;;;9.40;;
71080;SDS011;58740;50.672;18.690;2023-04-24T02:36:19;16.90;;;10.00;;
71080;SDS011;58740;50.672;18.690;2023-04-24T02:38:47;17.60;;;9.60;;
71080;SDS011;58740;50.672;18.690;2023-04-24T02:41:15;14.90;;;9.00;;
71080;SDS011;58740;50.672;18.690;2023-04-24T02:43:42;19.40;;;10.50;;
71080;SDS011;58740;50.672;18.690;2023-04-24T02:46:10;18.40;;;10.40;;
71080;SDS011;58740;50.672;18.690;2023-04-24T02:48:38;16.40;;;9.80;;
71080;SDS011;58740;50.672;18.690;2023-04-24T02:51:06;18.50;;;9.80;;
71080;SDS011;58740;50.672;18.690;2023-04-24T02:53:34;17.70;;;10.40;;
71080;SDS011;58740;50.672;18.690;2023-04-24T02:56:01;17.70;;;10.90;;
71080;SDS011;58740;50.672;18.690;2023-04-24T02:58:29;17.10;;;10.60;;
71080;SDS011;58740;50.672;18.690;2023-04-24T03:00:57;18.10;;;10.20;;
71080;SDS011;58740;50.672;18.690;2023-04-24T03:03:25;22.70;;;10.60;;
71080;SDS011;58740;50.672;18.690;2023-04-24T03:05:53;15.10;;;9.60;;
71080;SDS011;58740;50.672;18.690;2023-04-24T03:08:21;18.00;;;10.70;;
71080;SDS011;58740;50.672;18.690;2023-04-24T03:10:48;15.70;;;10.50;;
71080;SDS011;58740;50.672;18.690;2023-04-24T03:13:16;15.50;;;8.80;;
71080;SDS011;58740;50.672;18.690;2023-04-24T03:15:44;15.40;;;8.80;;
71080;SDS011;58740;50.672;18.690;2023-04-24T03:18:13;17.30;;;10.30;;
71080;SDS011;58740;50.672;18.690;2023-04-24T03:20:41;14.90;;;9.60;;
71080;SDS011;58740;50.672;18.690;2023-04-24T03:23:09;17.60;;;9.80;;
71080;SDS011;58740;50.672;18.690;2023-04-24T03:25:37;17.00;;;9.00;;
71080;SDS011;58740;50.672;18.690;2023-04-24T03:28:05;19.00;;;9.60;;
71080;SDS011;58740;50.672;18.690;2023-04-24T03:30:32;16.80;;;10.30;;
71080;SDS011;58740;50.672;18.690;2023-04-24T03:33:00;18.20;;;10.60;;
71080;SDS011;58740;50.672;18.690;2023-04-24T03:35:28;15.70;;;9.90;;
71080;SDS011;58740;50.672;18.690;2023-04-24T03:37:55;16.80;;;9.00;;
71080;SDS011;58740;50.672;18.690;2023-04-24T03:40:23;17.50;;;9.60;;
71080;SDS011;58740;50.672;18.690;2023-04-24T03:42:51;20.50;;;10.20;;
71080;SDS011;58740;50.672;18.690;2023-04-24T03:45:18;16.90;;;9.00;;
71080;SDS011;58740;50.672;18.690;2023-04-24T03:47:47;16.10;;;8.40;;
71080;SDS011;58740;50.672;18.690;2023-04-24T03:50:14;17.80;;;9.70;;
71080;SDS011;58740;50.672;18.690;2023-04-24T03:52:42;14.20;;;8.70;;
71080;SDS011;58740;50.672;18.690;2023-04-24T03:55:10;15.70;;;7.90;;
71080;SDS011;58740;50.672;18.690;2023-04-24T03:57:40;14.20;;;8.40;;
71080;SDS011;58740;50.672;18.690;2023-04-24T04:00:09;13.90;;;8.60;;
71080;SDS011;58740;50.672;18.690;2023-04-24T04:02:37;17.00;;;7.70;;
71080;SDS011;58740;50.672;18.690;2023-04-24T04:05:06;13.20;;;8.10;;
71080;SDS011;58740;50.672;18.690;2023-04-24T04:07:34;12.50;;;7.90;;
71080;SDS011;58740;50.672;18.690;2023-04-24T04:10:01;16.80;;;8.80;;
71080;SDS011;58740;50.672;18.690;2023-04-24T04:12:29;12.00;;;7.50;;
71080;SDS011;58740;50.672;18.690;2023-04-24T04:14:57;14.90;;;7.80;;
71080;SDS011;58740;50.672;18.690;2023-04-24T04:17:25;12.40;;;7.50;;
71080;SDS011;58740;50.672;18.690;2023-04-24T04:19:52;14.50;;;7.10;;
71080;SDS011;58740;50.672;18.690;2023-04-24T04:22:20;13.40;;;7.80;;
71080;SDS011;58740;50.672;18.690;2023-04-24T04:24:48;17.90;;;9.00;;
71080;SDS011;58740;50.672;18.690;2023-04-24T04:27:16;13.00;;;7.00;;
71080;SDS011;58740;50.672;18.690;2023-04-24T04:29:44;14.70;;;7.80;;
71080;SDS011;58740;50.672;18.690;2023-04-24T04:32:12;10.80;;;6.20;;
71080;SDS011;58740;50.672;18.690;2023-04-24T04:34:40;12.80;;;7.90;;
71080;SDS011;58740;50.672;18.690;2023-04-24T04:37:08;15.90;;;6.60;;
71080;SDS011;58740;50.672;18.690;2023-04-24T04:39:36;15.40;;;7.20;;
71080;SDS011;58740;50.672;18.690;2023-04-24T04:42:03;13.50;;;7.90;;
71080;SDS011;58740;50.672;18.690;2023-04-24T04:44:31;13.30;;;7.40;;
71080;SDS011;58740;50.672;18.690;2023-04-24T04:46:59;13.90;;;8.00;;
71080;SDS011;58740;50.672;18.690;2023-04-24T04:49:27;11.30;;;6.70;;
71080;SDS011;58740;50.672;18.690;2023-04-24T04:51:56;12.70;;;7.60;;
71080;SDS011;58740;50.672;18.690;2023-04-24T04:54:23;13.70;;;7.50;;
71080;SDS011;58740;50.672;18.690;2023-04-24T04:56:52;14.20;;;7.30;;
71080;SDS011;58740;50.672;18.690;2023-04-24T04:59:20;13.00;;;7.20;;
71080;SDS011;58740;50.672;18.690;2023-04-24T05:01:47;14.50;;;7.10;;
71080;SDS011;58740;50.672;18.690;2023-04-24T05:04:15;17.40;;;7.20;;
71080;SDS011;58740;50.672;18.690;2023-04-24T05:06:43;12.00;;;7.00;;
71080;SDS011;58740;50.672;18.690;2023-04-24T05:09:11;9.50;;;5.30;;
71080;SDS011;58740;50.672;18.690;2023-04-24T05:11:39;11.30;;;7.10;;
71080;SDS011;58740;50.672;18.690;2023-04-24T05:14:07;10.80;;;5.10;;
71080;SDS011;58740;50.672;18.690;2023-04-24T05:16:34;11.00;;;6.30;;
71080;SDS011;58740;50.672;18.690;2023-04-24T05:19:02;10.70;;;5.90;;
71080;SDS011;58740;50.672;18.690;2023-04-24T05:21:30;11.70;;;5.80;;
71080;SDS011;58740;50.672;18.690;2023-04-24T05:23:58;11.50;;;6.30;;
71080;SDS011;58740;50.672;18.690;2023-04-24T05:26:26;9.40;;;5.90;;
71080;SDS011;58740;50.672;18.690;2023-04-24T05:28:54;8.20;;;4.90;;
71080;SDS011;58740;50.672;18.690;2023-04-24T05:31:22;10.60;;;6.00;;
71080;SDS011;58740;50.672;18.690;2023-04-24T05:33:50;12.70;;;5.70;;
71080;SDS011;58740;50.672;18.690;2023-04-24T05:36:17;12.00;;;5.90;;
71080;SDS011;58740;50.672;18.690;2023-04-24T05:38:45;10.80;;;5.40;;
71080;SDS011;58740;50.672;18.690;2023-04-24T05:41:13;10.60;;;5.50;;
71080;SDS011;58740;50.672;18.690;2023-04-24T05:43:40;9.90;;;5.30;;
71080;SDS011;58740;50.672;18.690;2023-04-24T05:46:08;9.50;;;4.80;;
71080;SDS011;58740;50.672;18.690;2023-04-24T05:48:36;10.00;;;4.70;;
71080;SDS011;58740;50.672;18.690;2023-04-24T05:51:03;10.80;;;5.80;;
71080;SDS011;58740;50.672;18.690;2023-04-24T05:53:32;9.40;;;4.70;;
71080;SDS011;58740;50.672;18.690;2023-04-24T05:55:59;11.10;;;5.30;;
71080;SDS011;58740;50.672;18.690;2023-04-24T05:58:28;8.30;;;4.70;;
71080;SDS011;58740;50.672;18.690;2023-04-24T06:00:55;8.90;;;4.80;;
71080;SDS011;58740;50.672;18.690;2023-04-24T06:03:24;10.80;;;4.70;;
71080;SDS011;58740;50.672;18.690;2023-04-24T06:05:53;11.40;;;4.90;;
71080;SDS011;58740;50.672;18.690;2023-04-24T06:08:21;9.10;;;4.50;;
71080;SDS011;58740;50.672;18.690;2023-04-24T06:10:48;9.50;;;4.30;;
71080;SDS011;58740;50.672;18.690;2023-04-24T06:13:17;12.30;;;4.50;;
71080;SDS011;58740;50.672;18.690;2023-04-24T06:15:44;6.70;;;4.30;;
71080;SDS011;58740;50.672;18.690;2023-04-24T06:18:12;10.80;;;4.70;;
71080;SDS011;58740;50.672;18.690;2023-04-24T06:20:40;10.60;;;4.80;;
71080;SDS011;58740;50.672;18.690;2023-04-24T06:23:07;9.50;;;4.90;;
71080;SDS011;58740;50.672;18.690;2023-04-24T06:25:35;10.10;;;5.10;;
71080;SDS011;58740;50.672;18.690;2023-04-24T06:28:03;7.40;;;4.60;;
71080;SDS011;58740;50.672;18.690;2023-04-24T06:30:31;9.80;;;4.30;;
71080;SDS011;58740;50.672;18.690;2023-04-24T06:32:58;11.40;;;4.80;;
71080;SDS011;58740;50.672;18.690;2023-04-24T06:35:39;8.40;;;3.80;;
71080;SDS011;58740;50.672;18.690;2023-04-24T06:38:07;7.50;;;4.60;;
71080;SDS011;58740;50.672;18.690;2023-04-24T06:40:35;8.70;;;5.20;;
71080;SDS011;58740;50.672;18.690;2023-04-24T06:43:03;7.90;;;4.60;;
71080;SDS011;58740;50.672;18.690;2023-04-24T06:45:30;9.80;;;5.70;;
71080;SDS011;58740;50.672;18.690;2023-04-24T06:47:59;10.40;;;4.70;;
71080;SDS011;58740;50.672;18.690;2023-04-24T06:50:26;8.90;;;5.20;;
71080;SDS011;58740;50.672;18.690;2023-04-24T06:52:54;8.30;;;4.30;;
71080;SDS011;58740;50.672;18.690;2023-04-24T06:55:22;12.10;;;6.00;;
71080;SDS011;58740;50.672;18.690;2023-04-24T06:57:50;12.50;;;5.20;;
71080;SDS011;58740;50.672;18.690;2023-04-24T07:00:17;10.10;;;5.00;;
71080;SDS011;58740;50.672;18.690;2023-04-24T07:02:46;11.70;;;5.20;;
71080;SDS011;58740;50.672;18.690;2023-04-24T07:05:14;10.30;;;4.60;;
71080;SDS011;58740;50.672;18.690;2023-04-24T07:07:43;8.10;;;4.30;;
71080;SDS011;58740;50.672;18.690;2023-04-24T07:10:12;9.90;;;4.80;;
71080;SDS011;58740;50.672;18.690;2023-04-24T07:12:40;9.60;;;4.80;;
71080;SDS011;58740;50.672;18.690;2023-04-24T07:15:08;11.20;;;5.30;;
71080;SDS011;58740;50.672;18.690;2023-04-24T07:17:36;8.80;;;4.40;;
71080;SDS011;58740;50.672;18.690;2023-04-24T07:20:06;12.10;;;5.10;;
71080;SDS011;58740;50.672;18.690;2023-04-24T07:22:39;8.00;;;4.20;;
71080;SDS011;58740;50.672;18.690;2023-04-24T07:25:08;8.80;;;5.10;;
71080;SDS011;58740;50.672;18.690;2023-04-24T07:27:36;8.90;;;4.50;;
71080;SDS011;58740;50.672;18.690;2023-04-24T07:30:05;9.20;;;4.30;;
71080;SDS011;58740;50.672;18.690;2023-04-24T07:32:34;9.10;;;5.00;;
71080;SDS011;58740;50.672;18.690;2023-04-24T07:35:02;10.50;;;3.90;;
71080;SDS011;58740;50.672;18.690;2023-04-24T07:37:30;8.80;;;4.20;;
71080;SDS011;58740;50.672;18.690;2023-04-24T07:39:58;10.60;;;4.40;;
71080;SDS011;58740;50.672;18.690;2023-04-24T07:42:25;9.10;;;4.70;;
71080;SDS011;58740;50.672;18.690;2023-04-24T07:44:53;8.00;;;4.40;;
71080;SDS011;58740;50.672;18.690;2023-04-24T07:47:21;9.60;;;4.40;;
71080;SDS011;58740;50.672;18.690;2023-04-24T07:49:49;7.00;;;4.00;;
71080;SDS011;58740;50.672;18.690;2023-04-24T07:52:17;9.00;;;4.60;;
71080;SDS011;58740;50.672;18.690;2023-04-24T07:54:44;8.80;;;4.80;;
71080;SDS011;58740;50.672;18.690;2023-04-24T07:57:12;10.10;;;5.00;;
71080;SDS011;58740;50.672;18.690;2023-04-24T07:59:41;9.40;;;4.70;;
71080;SDS011;58740;50.672;18.690;2023-04-24T08:02:09;6.70;;;3.90;;
71080;SDS011;58740;50.672;18.690;2023-04-24T08:04:38;10.20;;;5.00;;
71080;SDS011;58740;50.672;18.690;2023-04-24T08:07:06;8.40;;;4.40;;
71080;SDS011;58740;50.672;18.690;2023-04-24T08:09:34;6.50;;;4.40;;
71080;SDS011;58740;50.672;18.690;2023-04-24T08:12:01;7.80;;;3.70;;
71080;SDS011;58740;50.672;18.690;2023-04-24T08:14:30;8.90;;;4.00;;
71080;SDS011;58740;50.672;18.690;2023-04-24T08:16:57;8.00;;;4.20;;
71080;SDS011;58740;50.672;18.690;2023-04-24T08:19:27;11.10;;;4.20;;
71080;SDS011;58740;50.672;18.690;2023-04-24T08:21:55;9.10;;;3.90;;
71080;SDS011;58740;50.672;18.690;2023-04-24T08:24:23;10.10;;;4.80;;
71080;SDS011;58740;50.672;18.690;2023-04-24T08:26:50;7.60;;;4.20;;
71080;SDS011;58740;50.672;18.690;2023-04-24T08:29:18;6.70;;;4.10;;
71080;SDS011;58740;50.672;18.690;2023-04-24T08:31:47;7.70;;;4.70;;
71080;SDS011;58740;50.672;18.690;2023-04-24T08:34:15;9.30;;;4.20;;
71080;SDS011;58740;50.672;18.690;2023-04-24T08:36:42;6.30;;;3.90;;
71080;SDS011;58740;50.672;18.690;2023-04-24T08:39:14;8.20;;;4.50;;
71080;SDS011;58740;50.672;18.690;2023-04-24T08:41:43;8.20;;;4.40;;
71080;SDS011;58740;50.672;18.690;2023-04-24T08:44:13;6.90;;;4.20;;
71080;SDS011;58740;50.672;18.690;2023-04-24T08:46:43;7.40;;;4.20;;
71080;SDS011;58740;50.672;18.690;2023-04-24T08:49:15;10.00;;;4.30;;
71080;SDS011;58740;50.672;18.690;2023-04-24T08:51:46;7.70;;;3.40;;
71080;SDS011;58740;50.672;18.690;2023-04-24T08:54:15;11.50;;;4.20;;
71080;SDS011;58740;50.672;18.690;2023-04-24T08:56:44;8.30;;;3.90;;
71080;SDS011;58740;50.672;18.690;2023-04-24T08:59:13;7.50;;;4.00;;
71080;SDS011;58740;50.672;18.690;2023-04-24T09:01:42;7.80;;;3.70;;
71080;SDS011;58740;50.672;18.690;2023-04-24T09:04:14;9.00;;;4.70;;
71080;SDS011;58740;50.672;18.690;2023-04-24T09:06:44;6.70;;;3.70;;
71080;SDS011;58740;50.672;18.690;2023-04-24T09:09:12;8.90;;;4.00;;
71080;SDS011;58740;50.672;18.690;2023-04-24T09:11:41;8.70;;;3.80;;
71080;SDS011;58740;50.672;18.690;2023-04-24T09:14:09;6.90;;;3.90;;
71080;SDS011;58740;50.672;18.690;2023-04-24T09:16:38;9.80;;;4.70;;
71080;SDS011;58740;50.672;18.690;2023-04-24T09:19:05;9.10;;;4.40;;
71080;SDS011;58740;50.672;18.690;2023-04-24T09:21:34;8.70;;;4.10;;
71080;SDS011;58740;50.672;18.690;2023-04-24T09:24:08;8.00;;;4.00;;
71080;SDS011;58740;50.672;18.690;2023-04-24T09:26:45;7.20;;;3.80;;
71080;SDS011;58740;50.672;18.690;2023-04-24T09:29:16;6.90;;;3.80;;
71080;SDS011;58740;50.672;18.690;2023-04-24T09:31:45;7.70;;;3.70;;
71080;SDS011;58740;50.672;18.690;2023-04-24T09:34:14;6.50;;;3.90;;
71080;SDS011;58740;50.672;18.690;2023-04-24T09:36:42;7.90;;;4.20;;
71080;SDS011;58740;50.672;18.690;2023-04-24T09:39:13;8.40;;;4.10;;
71080;SDS011;58740;50.672;18.690;2023-04-24T09:44:16;7.50;;;4.40;;
71080;SDS011;58740;50.672;18.690;2023-04-24T09:46:53;7.20;;;4.00;;
71080;SDS011;58740;50.672;18.690;2023-04-24T09:49:24;8.50;;;3.60;;
71080;SDS011;58740;50.672;18.690;2023-04-24T09:52:07;9.10;;;3.90;;
71080;SDS011;58740;50.672;18.690;2023-04-24T09:54:38;7.10;;;3.90;;
71080;SDS011;58740;50.672;18.690;2023-04-24T09:57:07;8.20;;;4.00;;
71080;SDS011;58740;50.672;18.690;2023-04-24T09:59:42;7.70;;;4.20;;
71080;SDS011;58740;50.672;18.690;2023-04-24T10:02:19;6.80;;;3.60;;
71080;SDS011;58740;50.672;18.690;2023-04-24T10:04:55;6.50;;;3.60;;
71080;SDS011;58740;50.672;18.690;2023-04-24T10:07:27;7.70;;;3.80;;
71080;SDS011;58740;50.672;18.690;2023-04-24T10:09:55;8.70;;;3.80;;
71080;SDS011;58740;50.672;18.690;2023-04-24T10:12:24;7.00;;;3.50;;
71080;SDS011;58740;50.672;18.690;2023-04-24T10:14:52;6.60;;;3.80;;
71080;SDS011;58740;50.672;18.690;2023-04-24T10:17:21;8.50;;;4.10;;
71080;SDS011;58740;50.672;18.690;2023-04-24T10:19:51;7.70;;;4.40;;
71080;SDS011;58740;50.672;18.690;2023-04-24T10:22:20;8.80;;;4.10;;
71080;SDS011;58740;50.672;18.690;2023-04-24T10:24:49;6.50;;;3.70;;
71080;SDS011;58740;50.672;18.690;2023-04-24T10:27:17;8.80;;;4.10;;
71080;SDS011;58740;50.672;18.690;2023-04-24T10:29:50;7.90;;;3.80;;
71080;SDS011;58740;50.672;18.690;2023-04-24T10:32:20;8.70;;;4.00;;
71080;SDS011;58740;50.672;18.690;2023-04-24T10:34:48;8.80;;;4.30;;
71080;SDS011;58740;50.672;18.690;2023-04-24T10:37:16;7.70;;;4.60;;
71080;SDS011;58740;50.672;18.690;2023-04-24T10:39:47;9.60;;;5.60;;
71080;SDS011;58740;50.672;18.690;2023-04-24T10:42:16;9.30;;;4.60;;
71080;SDS011;58740;50.672;18.690;2023-04-24T10:44:47;9.90;;;4.00;;
71080;SDS011;58740;50.672;18.690;2023-04-24T10:47:16;13.30;;;5.40;;
71080;SDS011;58740;50.672;18.690;2023-04-24T10:49:44;10.60;;;4.90;;
71080;SDS011;58740;50.672;18.690;2023-04-24T10:52:13;9.80;;;4.50;;
71080;SDS011;58740;50.672;18.690;2023-04-24T10:54:44;9.60;;;4.60;;
71080;SDS011;58740;50.672;18.690;2023-04-24T11:02:39;8.50;;;4.80;;
71080;SDS011;58740;50.672;18.690;2023-04-24T11:05:14;8.00;;;4.70;;
71080;SDS011;58740;50.672;18.690;2023-04-24T11:08:16;8.70;;;4.00;;
71080;SDS011;58740;50.672;18.690;2023-04-24T11:19:07;8.10;;;4.70;;
71080;SDS011;58740;50.672;18.690;2023-04-24T11:24:35;8.30;;;4.90;;
71080;SDS011;58740;50.672;18.690;2023-04-24T11:27:20;7.60;;;4.20;;
71080;SDS011;58740;50.672;18.690;2023-04-24T11:29:59;9.60;;;5.00;;
71080;SDS011;58740;50.672;18.690;2023-04-24T11:37:36;9.00;;;4.20;;
71080;SDS011;58740;50.672;18.690;2023-04-24T11:40:08;10.10;;;4.50;;
71080;SDS011;58740;50.672;18.690;2023-04-24T11:42:40;8.00;;;4.60;;
71080;SDS011;58740;50.672;18.690;2023-04-24T11:45:12;10.00;;;4.50;;
71080;SDS011;58740;50.672;18.690;2023-04-24T11:47:43;7.90;;;4.50;;
71080;SDS011;58740;50.672;18.690;2023-04-24T11:50:14;9.10;;;4.70;;
71080;SDS011;58740;50.672;18.690;2023-04-24T11:52:44;8.20;;;4.20;;
71080;SDS011;58740;50.672;18.690;2023-04-24T11:57:46;8.70;;;4.50;;
71080;SDS011;58740;50.672;18.690;2023-04-24T12:00:21;9.30;;;4.00;;
71080;SDS011;58740;50.672;18.690;2023-04-24T12:02:51;8.10;;;4.00;;
71080;SDS011;58740;50.672;18.690;2023-04-24T12:05:31;8.50;;;4.70;;
71080;SDS011;58740;50.672;18.690;2023-04-24T12:07:59;9.00;;;5.10;;
71080;SDS011;58740;50.672;18.690;2023-04-24T12:10:29;9.80;;;4.50;;
71080;SDS011;58740;50.672;18.690;2023-04-24T12:12:58;9.20;;;4.70;;
71080;SDS011;58740;50.672;18.690;2023-04-24T12:15:27;7.40;;;4.30;;
71080;SDS011;58740;50.672;18.690;2023-04-24T12:17:56;7.30;;;4.60;;
71080;SDS011;58740;50.672;18.690;2023-04-24T12:20:29;10.00;;;5.10;;
71080;SDS011;58740;50.672;18.690;2023-04-24T12:23:01;7.40;;;4.60;;
71080;SDS011;58740;50.672;18.690;2023-04-24T12:25:31;7.20;;;4.30;;
71080;SDS011;58740;50.672;18.690;2023-04-24T12:30:35;8.20;;;4.60;;
71080;SDS011;58740;50.672;18.690;2023-04-24T12:33:08;10.90;;;4.80;;
71080;SDS011;58740;50.672;18.690;2023-04-24T12:35:36;7.90;;;5.00;;
71080;SDS011;58740;50.672;18.690;2023-04-24T12:40:41;8.50;;;5.20;;
71080;SDS011;58740;50.672;18.690;2023-04-24T12:43:18;10.50;;;5.30;;
71080;SDS011;58740;50.672;18.690;2023-04-24T12:45:47;8.20;;;5.80;;
71080;SDS011;58740;50.672;18.690;2023-04-24T12:48:15;9.30;;;4.80;;
71080;SDS011;58740;50.672;18.690;2023-04-24T12:50:44;7.70;;;4.60;;
71080;SDS011;58740;50.672;18.690;2023-04-24T12:53:14;10.30;;;5.70;;
71080;SDS011;58740;50.672;18.690;2023-04-24T12:55:43;8.30;;;4.90;;
71080;SDS011;58740;50.672;18.690;2023-04-24T12:58:12;10.10;;;5.30;;
71080;SDS011;58740;50.672;18.690;2023-04-24T13:00:40;9.70;;;5.40;;
71080;SDS011;58740;50.672;18.690;2023-04-24T13:03:11;9.50;;;5.60;;
71080;SDS011;58740;50.672;18.690;2023-04-24T13:05:40;8.00;;;4.80;;
71080;SDS011;58740;50.672;18.690;2023-04-24T13:08:09;9.60;;;5.20;;
71080;SDS011;58740;50.672;18.690;2023-04-24T13:10:37;7.90;;;4.70;;
71080;SDS011;58740;50.672;18.690;2023-04-24T13:13:05;8.30;;;5.00;;
71080;SDS011;58740;50.672;18.690;2023-04-24T13:15:32;8.70;;;4.50;;
71080;SDS011;58740;50.672;18.690;2023-04-24T13:18:01;7.30;;;4.60;;
71080;SDS011;58740;50.672;18.690;2023-04-24T13:20:29;6.30;;;4.30;;
71080;SDS011;58740;50.672;18.690;2023-04-24T13:22:56;7.10;;;4.80;;
71080;SDS011;58740;50.672;18.690;2023-04-24T13:25:24;7.70;;;4.40;;
71080;SDS011;58740;50.672;18.690;2023-04-24T13:27:52;8.20;;;4.40;;
71080;SDS011;58740;50.672;18.690;2023-04-24T13:30:20;8.40;;;5.00;;
71080;SDS011;58740;50.672;18.690;2023-04-24T13:32:47;8.10;;;4.60;;
71080;SDS011;58740;50.672;18.690;2023-04-24T13:35:15;8.80;;;4.90;;
71080;SDS011;58740;50.672;18.690;2023-04-24T13:37:43;7.60;;;4.70;;
71080;SDS011;58740;50.672;18.690;2023-04-24T13:40:11;11.90;;;5.20;;
71080;SDS011;58740;50.672;18.690;2023-04-24T13:42:39;9.20;;;4.20;;
71080;SDS011;58740;50.672;18.690;2023-04-24T13:45:08;9.50;;;4.80;;
71080;SDS011;58740;50.672;18.690;2023-04-24T13:47:52;80.10;;;11.20;;
71080;SDS011;58740;50.672;18.690;2023-04-24T13:50:22;9.60;;;5.40;;
71080;SDS011;58740;50.672;18.690;2023-04-24T13:52:49;14.30;;;4.70;;
71080;SDS011;58740;50.672;18.690;2023-04-24T13:55:17;8.90;;;4.80;;
71080;SDS011;58740;50.672;18.690;2023-04-24T13:57:45;7.60;;;4.30;;
71080;SDS011;58740;50.672;18.690;2023-04-24T14:00:13;7.30;;;4.60;;
71080;SDS011;58740;50.672;18.690;2023-04-24T14:02:41;10.20;;;5.10;;
71080;SDS011;58740;50.672;18.690;2023-04-24T14:05:09;8.10;;;5.00;;
71080;SDS011;58740;50.672;18.690;2023-04-24T14:07:38;8.40;;;4.40;;
71080;SDS011;58740;50.672;18.690;2023-04-24T14:10:07;9.80;;;5.20;;
71080;SDS011;58740;50.672;18.690;2023-04-24T14:12:35;11.00;;;5.30;;
71080;SDS011;58740;50.672;18.690;2023-04-24T14:15:04;10.10;;;5.80;;
71080;SDS011;58740;50.672;18.690;2023-04-24T14:17:32;8.80;;;5.60;;
71080;SDS011;58740;50.672;18.690;2023-04-24T14:20:00;9.50;;;5.90;;
71080;SDS011;58740;50.672;18.690;2023-04-24T14:22:28;9.70;;;5.90;;
71080;SDS011;58740;50.672;18.690;2023-04-24T14:24:55;10.90;;;6.10;;
71080;SDS011;58740;50.672;18.690;2023-04-24T14:27:24;9.70;;;5.40;;
71080;SDS011;58740;50.672;18.690;2023-04-24T14:29:53;8.60;;;4.60;;
71080;SDS011;58740;50.672;18.690;2023-04-24T14:32:21;8.80;;;5.00;;
71080;SDS011;58740;50.672;18.690;2023-04-24T14:34:49;8.20;;;5.40;;
71080;SDS011;58740;50.672;18.690;2023-04-24T14:37:17;8.30;;;4.90;;
71080;SDS011;58740;50.672;18.690;2023-04-24T14:39:45;10.90;;;5.80;;
71080;SDS011;58740;50.672;18.690;2023-04-24T14:42:33;8.90;;;4.50;;
71080;SDS011;58740;50.672;18.690;2023-04-24T14:45:01;7.30;;;5.00;;
71080;SDS011;58740;50.672;18.690;2023-04-24T14:47:29;9.80;;;4.80;;
71080;SDS011;58740;50.672;18.690;2023-04-24T14:49:58;9.10;;;4.40;;
71080;SDS011;58740;50.672;18.690;2023-04-24T14:52:25;8.20;;;5.10;;
71080;SDS011;58740;50.672;18.690;2023-04-24T14:54:53;8.00;;;4.70;;
71080;SDS011;58740;50.672;18.690;2023-04-24T14:57:21;7.30;;;5.10;;
71080;SDS011;58740;50.672;18.690;2023-04-24T14:59:49;8.70;;;5.80;;
71080;SDS011;58740;50.672;18.690;2023-04-24T15:02:17;7.80;;;5.60;;
71080;SDS011;58740;50.672;18.690;2023-04-24T15:04:48;11.40;;;5.80;;
71080;SDS011;58740;50.672;18.690;2023-04-24T15:07:16;9.80;;;5.60;;